sensor_id;sensor_type;location;lat;lon;timestamp;temperature;humidity
54485;DHT22;45006;56.958;24.166;2023-07-30T00:00:55;25.10;84.50
54485;DHT22;45006;56.958;24.166;2023-07-30T00:03:23;25.00;84.50
54485;DHT22;45006;56.958;24.166;2023-07-30T00:05:56;25.00;84.70
54485;DHT22;45006;56.958;24.166;2023-07-30T00:08:23;25.00;84.60
54485;DHT22;45006;56.958;24.166;2023-07-30T00:10:51;25.00;84.70
54485;DHT22;45006;56.958;24.166;2023-07-30T00:13:18;25.00;84.80
54485;DHT22;45006;56.958;24.166;2023-07-30T00:15:48;25.00;84.90
54485;DHT22;45006;56.958;24.166;2023-07-30T00:18:15;25.00;85.00
54485;DHT22;45006;56.958;24.166;2023-07-30T00:20:43;25.00;85.00
54485;DHT22;45006;56.958;24.166;2023-07-30T00:23:10;25.00;84.80
54485;DHT22;45006;56.958;24.166;2023-07-30T00:25:37;25.00;84.90
54485;DHT22;45006;56.958;24.166;2023-07-30T00:28:04;25.00;85.00
54485;DHT22;45006;56.958;24.166;2023-07-30T00:30:31;25.00;84.90
54485;DHT22;45006;56.958;24.166;2023-07-30T00:32:58;25.00;85.00
54485;DHT22;45006;56.958;24.166;2023-07-30T00:35:26;25.00;85.00
54485;DHT22;45006;56.958;24.166;2023-07-30T00:37:53;25.00;85.10
54485;DHT22;45006;56.958;24.166;2023-07-30T00:40:24;25.00;85.20
54485;DHT22;45006;56.958;24.166;2023-07-30T00:42:51;25.00;85.10
54485;DHT22;45006;56.958;24.166;2023-07-30T00:45:18;25.00;85.00
54485;DHT22;45006;56.958;24.166;2023-07-30T00:47:45;25.00;84.90
54485;DHT22;45006;56.958;24.166;2023-07-30T00:50:14;25.00;85.00
54485;DHT22;45006;56.958;24.166;2023-07-30T00:52:43;24.90;84.80
54485;DHT22;45006;56.958;24.166;2023-07-30T00:55:11;25.00;84.60
54485;DHT22;45006;56.958;24.166;2023-07-30T00:57:38;25.00;84.60
54485;DHT22;45006;56.958;24.166;2023-07-30T01:00:06;25.00;84.60
54485;DHT22;45006;56.958;24.166;2023-07-30T01:02:36;25.00;84.80
54485;DHT22;45006;56.958;24.166;2023-07-30T01:05:03;25.00;84.60
54485;DHT22;45006;56.958;24.166;2023-07-30T01:07:31;25.00;84.60
54485;DHT22;45006;56.958;24.166;2023-07-30T01:09:59;25.00;84.80
54485;DHT22;45006;56.958;24.166;2023-07-30T01:12:28;25.00;84.80
54485;DHT22;45006;56.958;24.166;2023-07-30T01:14:56;25.00;84.70
54485;DHT22;45006;56.958;24.166;2023-07-30T01:17:25;25.00;84.80
54485;DHT22;45006;56.958;24.166;2023-07-30T01:19:56;25.00;85.10
54485;DHT22;45006;56.958;24.166;2023-07-30T01:22:23;25.00;85.20
54485;DHT22;45006;56.958;24.166;2023-07-30T01:24:51;25.00;85.30
54485;DHT22;45006;56.958;24.166;2023-07-30T01:27:40;25.00;85.10
54485;DHT22;45006;56.958;24.166;2023-07-30T01:30:18;25.00;85.20
54485;DHT22;45006;56.958;24.166;2023-07-30T01:32:49;25.00;85.30
54485;DHT22;45006;56.958;24.166;2023-07-30T01:35:21;25.00;85.50
54485;DHT22;45006;56.958;24.166;2023-07-30T01:37:51;25.00;85.60
54485;DHT22;45006;56.958;24.166;2023-07-30T01:40:20;25.00;85.50
54485;DHT22;45006;56.958;24.166;2023-07-30T01:42:49;25.00;85.50
54485;DHT22;45006;56.958;24.166;2023-07-30T01:45:16;25.00;85.60
54485;DHT22;45006;56.958;24.166;2023-07-30T01:47:43;25.00;85.70
54485;DHT22;45006;56.958;24.166;2023-07-30T01:50:11;25.00;85.50
54485;DHT22;45006;56.958;24.166;2023-07-30T01:52:38;25.00;85.50
54485;DHT22;45006;56.958;24.166;2023-07-30T01:55:05;25.00;86.10
54485;DHT22;45006;56.958;24.166;2023-07-30T01:57:32;25.00;85.40
54485;DHT22;45006;56.958;24.166;2023-07-30T01:59:59;25.00;85.40
54485;DHT22;45006;56.958;24.166;2023-07-30T02:02:26;25.00;85.30
54485;DHT22;45006;56.958;24.166;2023-07-30T02:04:54;25.00;85.20
54485;DHT22;45006;56.958;24.166;2023-07-30T02:07:22;25.00;85.10
54485;DHT22;45006;56.958;24.166;2023-07-30T02:09:49;25.10;85.20
54485;DHT22;45006;56.958;24.166;2023-07-30T02:12:16;25.00;85.40
54485;DHT22;45006;56.958;24.166;2023-07-30T02:14:43;24.90;85.40
54485;DHT22;45006;56.958;24.166;2023-07-30T02:17:10;25.00;85.40
54485;DHT22;45006;56.958;24.166;2023-07-30T02:19:37;25.00;85.20
54485;DHT22;45006;56.958;24.166;2023-07-30T02:22:04;25.00;85.20
54485;DHT22;45006;56.958;24.166;2023-07-30T02:24:32;25.00;85.40
54485;DHT22;45006;56.958;24.166;2023-07-30T02:26:59;24.90;85.40
54485;DHT22;45006;56.958;24.166;2023-07-30T02:29:26;25.00;85.30
54485;DHT22;45006;56.958;24.166;2023-07-30T02:31:54;24.90;85.20
54485;DHT22;45006;56.958;24.166;2023-07-30T02:34:22;24.90;85.00
54485;DHT22;45006;56.958;24.166;2023-07-30T02:36:50;25.00;85.00
54485;DHT22;45006;56.958;24.166;2023-07-30T02:39:17;25.00;85.20
54485;DHT22;45006;56.958;24.166;2023-07-30T02:41:44;25.00;84.90
54485;DHT22;45006;56.958;24.166;2023-07-30T02:44:12;25.00;84.80
54485;DHT22;45006;56.958;24.166;2023-07-30T02:46:39;25.00;84.90
54485;DHT22;45006;56.958;24.166;2023-07-30T02:49:07;25.00;84.70
54485;DHT22;45006;56.958;24.166;2023-07-30T02:51:36;25.00;84.80
54485;DHT22;45006;56.958;24.166;2023-07-30T02:54:08;25.00;84.70
54485;DHT22;45006;56.958;24.166;2023-07-30T02:56:36;25.00;84.80
54485;DHT22;45006;56.958;24.166;2023-07-30T02:59:03;25.00;84.50
54485;DHT22;45006;56.958;24.166;2023-07-30T03:01:31;25.00;85.30
54485;DHT22;45006;56.958;24.166;2023-07-30T03:03:59;25.00;84.80
54485;DHT22;45006;56.958;24.166;2023-07-30T03:06:26;25.00;84.60
54485;DHT22;45006;56.958;24.166;2023-07-30T03:08:52;25.00;84.70
54485;DHT22;45006;56.958;24.166;2023-07-30T03:11:19;25.00;84.60
54485;DHT22;45006;56.958;24.166;2023-07-30T03:13:47;25.00;84.50
54485;DHT22;45006;56.958;24.166;2023-07-30T03:16:14;25.00;84.50
54485;DHT22;45006;56.958;24.166;2023-07-30T03:18:41;25.00;84.70
54485;DHT22;45006;56.958;24.166;2023-07-30T03:21:08;25.00;84.60
54485;DHT22;45006;56.958;24.166;2023-07-30T03:23:35;25.10;84.70
54485;DHT22;45006;56.958;24.166;2023-07-30T03:26:02;25.00;84.70
54485;DHT22;45006;56.958;24.166;2023-07-30T03:28:29;25.00;84.60
54485;DHT22;45006;56.958;24.166;2023-07-30T03:30:56;25.00;84.50
54485;DHT22;45006;56.958;24.166;2023-07-30T03:33:23;25.10;84.40
54485;DHT22;45006;56.958;24.166;2023-07-30T03:35:50;25.10;84.50
54485;DHT22;45006;56.958;24.166;2023-07-30T03:38:17;25.10;84.50
54485;DHT22;45006;56.958;24.166;2023-07-30T03:40:44;25.10;84.40
54485;DHT22;45006;56.958;24.166;2023-07-30T03:43:10;25.10;84.40
54485;DHT22;45006;56.958;24.166;2023-07-30T03:45:38;25.10;84.40
54485;DHT22;45006;56.958;24.166;2023-07-30T03:48:06;25.10;84.40
54485;DHT22;45006;56.958;24.166;2023-07-30T03:50:33;25.10;84.40
54485;DHT22;45006;56.958;24.166;2023-07-30T03:53:00;25.10;84.50
54485;DHT22;45006;56.958;24.166;2023-07-30T03:55:27;25.00;84.40
54485;DHT22;45006;56.958;24.166;2023-07-30T03:57:55;25.10;84.30
54485;DHT22;45006;56.958;24.166;2023-07-30T04:00:23;25.10;84.40
54485;DHT22;45006;56.958;24.166;2023-07-30T04:02:50;25.10;84.20
54485;DHT22;45006;56.958;24.166;2023-07-30T04:05:17;25.10;84.20
54485;DHT22;45006;56.958;24.166;2023-07-30T04:07:44;25.00;84.20
54485;DHT22;45006;56.958;24.166;2023-07-30T04:10:11;25.10;84.20
54485;DHT22;45006;56.958;24.166;2023-07-30T04:12:38;25.10;84.10
54485;DHT22;45006;56.958;24.166;2023-07-30T04:15:06;25.10;84.00
54485;DHT22;45006;56.958;24.166;2023-07-30T04:17:35;25.10;84.00
54485;DHT22;45006;56.958;24.166;2023-07-30T04:20:03;25.10;83.90
54485;DHT22;45006;56.958;24.166;2023-07-30T04:22:31;25.10;83.90
54485;DHT22;45006;56.958;24.166;2023-07-30T04:24:58;25.10;83.70
54485;DHT22;45006;56.958;24.166;2023-07-30T04:27:25;25.10;83.70
54485;DHT22;45006;56.958;24.166;2023-07-30T04:29:56;25.10;83.80
54485;DHT22;45006;56.958;24.166;2023-07-30T04:32:23;25.10;83.70
54485;DHT22;45006;56.958;24.166;2023-07-30T04:34:50;25.10;84.40
54485;DHT22;45006;56.958;24.166;2023-07-30T04:37:17;25.10;83.70
54485;DHT22;45006;56.958;24.166;2023-07-30T04:39:44;25.20;83.70
54485;DHT22;45006;56.958;24.166;2023-07-30T04:42:11;25.20;83.60
54485;DHT22;45006;56.958;24.166;2023-07-30T04:44:39;25.30;83.50
54485;DHT22;45006;56.958;24.166;2023-07-30T04:47:08;25.30;83.30
54485;DHT22;45006;56.958;24.166;2023-07-30T04:49:36;25.30;83.20
54485;DHT22;45006;56.958;24.166;2023-07-30T04:52:07;25.20;83.50
54485;DHT22;45006;56.958;24.166;2023-07-30T04:54:35;25.10;83.70
54485;DHT22;45006;56.958;24.166;2023-07-30T04:57:05;25.10;83.90
54485;DHT22;45006;56.958;24.166;2023-07-30T04:59:33;25.00;83.90
54485;DHT22;45006;56.958;24.166;2023-07-30T05:02:01;25.10;84.10
54485;DHT22;45006;56.958;24.166;2023-07-30T05:04:28;25.00;84.30
54485;DHT22;45006;56.958;24.166;2023-07-30T05:06:55;25.10;84.30
54485;DHT22;45006;56.958;24.166;2023-07-30T05:09:22;25.10;84.10
54485;DHT22;45006;56.958;24.166;2023-07-30T05:11:49;25.10;83.90
54485;DHT22;45006;56.958;24.166;2023-07-30T05:14:16;25.20;84.00
54485;DHT22;45006;56.958;24.166;2023-07-30T05:16:43;25.30;83.80
54485;DHT22;45006;56.958;24.166;2023-07-30T05:19:10;25.40;83.40
54485;DHT22;45006;56.958;24.166;2023-07-30T05:21:36;25.40;83.00
54485;DHT22;45006;56.958;24.166;2023-07-30T05:24:04;25.50;83.00
54485;DHT22;45006;56.958;24.166;2023-07-30T05:26:31;25.50;82.70
54485;DHT22;45006;56.958;24.166;2023-07-30T05:28:58;25.50;82.40
54485;DHT22;45006;56.958;24.166;2023-07-30T05:31:25;25.50;82.20
54485;DHT22;45006;56.958;24.166;2023-07-30T05:33:53;25.60;81.90
54485;DHT22;45006;56.958;24.166;2023-07-30T05:36:20;25.70;82.20
54485;DHT22;45006;56.958;24.166;2023-07-30T05:38:47;25.80;81.90
54485;DHT22;45006;56.958;24.166;2023-07-30T05:41:14;25.90;81.80
54485;DHT22;45006;56.958;24.166;2023-07-30T05:43:41;25.90;81.60
54485;DHT22;45006;56.958;24.166;2023-07-30T05:46:08;25.90;81.70
54485;DHT22;45006;56.958;24.166;2023-07-30T05:48:35;25.90;81.70
54485;DHT22;45006;56.958;24.166;2023-07-30T05:51:02;26.00;81.30
54485;DHT22;45006;56.958;24.166;2023-07-30T05:53:29;26.00;81.30
54485;DHT22;45006;56.958;24.166;2023-07-30T05:55:56;26.00;81.20
54485;DHT22;45006;56.958;24.166;2023-07-30T05:58:23;26.10;81.20
54485;DHT22;45006;56.958;24.166;2023-07-30T06:00:51;26.00;81.30
54485;DHT22;45006;56.958;24.166;2023-07-30T06:03:18;26.00;81.50
54485;DHT22;45006;56.958;24.166;2023-07-30T06:05:46;26.10;81.50
54485;DHT22;45006;56.958;24.166;2023-07-30T06:08:12;26.10;81.30
54485;DHT22;45006;56.958;24.166;2023-07-30T06:10:39;26.20;81.30
54485;DHT22;45006;56.958;24.166;2023-07-30T06:13:07;26.20;81.20
54485;DHT22;45006;56.958;24.166;2023-07-30T06:15:34;26.30;81.00
54485;DHT22;45006;56.958;24.166;2023-07-30T06:18:01;26.40;80.60
54485;DHT22;45006;56.958;24.166;2023-07-30T06:20:30;26.50;80.60
54485;DHT22;45006;56.958;24.166;2023-07-30T06:22:57;26.50;80.40
54485;DHT22;45006;56.958;24.166;2023-07-30T06:25:24;26.50;80.40
54485;DHT22;45006;56.958;24.166;2023-07-30T06:27:51;26.50;80.20
54485;DHT22;45006;56.958;24.166;2023-07-30T06:30:18;26.60;80.20
54485;DHT22;45006;56.958;24.166;2023-07-30T06:32:45;26.60;80.00
54485;DHT22;45006;56.958;24.166;2023-07-30T06:35:13;26.60;79.90
54485;DHT22;45006;56.958;24.166;2023-07-30T06:37:40;26.60;79.90
54485;DHT22;45006;56.958;24.166;2023-07-30T06:40:08;26.60;80.00
54485;DHT22;45006;56.958;24.166;2023-07-30T06:42:35;26.60;80.30
54485;DHT22;45006;56.958;24.166;2023-07-30T06:45:03;26.70;79.70
54485;DHT22;45006;56.958;24.166;2023-07-30T06:47:30;26.70;79.80
54485;DHT22;45006;56.958;24.166;2023-07-30T06:49:59;26.70;79.90
54485;DHT22;45006;56.958;24.166;2023-07-30T06:52:26;26.70;79.80
54485;DHT22;45006;56.958;24.166;2023-07-30T06:54:53;26.70;79.90
54485;DHT22;45006;56.958;24.166;2023-07-30T06:57:20;26.60;79.90
54485;DHT22;45006;56.958;24.166;2023-07-30T06:59:47;26.60;80.00
54485;DHT22;45006;56.958;24.166;2023-07-30T07:02:14;26.50;80.10
54485;DHT22;45006;56.958;24.166;2023-07-30T07:04:41;26.50;80.20
54485;DHT22;45006;56.958;24.166;2023-07-30T07:07:08;26.50;80.30
54485;DHT22;45006;56.958;24.166;2023-07-30T07:09:35;26.50;80.70
54485;DHT22;45006;56.958;24.166;2023-07-30T07:12:03;26.50;80.60
54485;DHT22;45006;56.958;24.166;2023-07-30T07:14:30;26.40;80.70
54485;DHT22;45006;56.958;24.166;2023-07-30T07:16:57;26.40;80.90
54485;DHT22;45006;56.958;24.166;2023-07-30T07:19:24;26.40;81.00
54485;DHT22;45006;56.958;24.166;2023-07-30T07:21:51;26.30;81.00
54485;DHT22;45006;56.958;24.166;2023-07-30T07:24:18;26.30;81.10
54485;DHT22;45006;56.958;24.166;2023-07-30T07:26:45;26.30;81.30
54485;DHT22;45006;56.958;24.166;2023-07-30T07:29:13;26.30;81.50
54485;DHT22;45006;56.958;24.166;2023-07-30T07:31:40;26.30;81.40
54485;DHT22;45006;56.958;24.166;2023-07-30T07:34:08;26.30;81.40
54485;DHT22;45006;56.958;24.166;2023-07-30T07:36:36;26.30;81.50
54485;DHT22;45006;56.958;24.166;2023-07-30T07:39:04;26.20;81.70
54485;DHT22;45006;56.958;24.166;2023-07-30T07:41:31;26.20;81.50
54485;DHT22;45006;56.958;24.166;2023-07-30T07:43:58;26.20;81.70
54485;DHT22;45006;56.958;24.166;2023-07-30T07:46:25;26.20;81.70
54485;DHT22;45006;56.958;24.166;2023-07-30T07:48:54;26.20;81.80
54485;DHT22;45006;56.958;24.166;2023-07-30T07:51:21;26.10;76.20
54485;DHT22;45006;56.958;24.166;2023-07-30T07:53:51;26.00;75.70
54485;DHT22;45006;56.958;24.166;2023-07-30T07:56:19;25.90;75.60
54485;DHT22;45006;56.958;24.166;2023-07-30T07:58:46;25.90;76.10
54485;DHT22;45006;56.958;24.166;2023-07-30T08:01:13;25.80;76.70
54485;DHT22;45006;56.958;24.166;2023-07-30T08:03:40;25.80;77.10
54485;DHT22;45006;56.958;24.166;2023-07-30T08:06:08;25.80;77.40
54485;DHT22;45006;56.958;24.166;2023-07-30T08:08:35;25.70;77.10
54485;DHT22;45006;56.958;24.166;2023-07-30T08:11:08;25.70;77.30
54485;DHT22;45006;56.958;24.166;2023-07-30T08:13:36;25.70;77.10
54485;DHT22;45006;56.958;24.166;2023-07-30T08:16:05;25.70;77.20
54485;DHT22;45006;56.958;24.166;2023-07-30T08:18:33;25.70;77.30
54485;DHT22;45006;56.958;24.166;2023-07-30T08:21:00;25.60;77.20
54485;DHT22;45006;56.958;24.166;2023-07-30T08:23:27;25.60;77.30
54485;DHT22;45006;56.958;24.166;2023-07-30T08:25:55;25.60;77.60
54485;DHT22;45006;56.958;24.166;2023-07-30T08:28:22;25.60;77.40
54485;DHT22;45006;56.958;24.166;2023-07-30T08:30:49;25.60;77.40
54485;DHT22;45006;56.958;24.166;2023-07-30T08:33:16;25.60;77.40
54485;DHT22;45006;56.958;24.166;2023-07-30T08:35:44;25.60;77.50
54485;DHT22;45006;56.958;24.166;2023-07-30T08:38:12;25.50;77.60
54485;DHT22;45006;56.958;24.166;2023-07-30T08:40:39;25.60;77.80
54485;DHT22;45006;56.958;24.166;2023-07-30T08:43:06;25.60;77.70
54485;DHT22;45006;56.958;24.166;2023-07-30T08:45:34;25.60;78.00
54485;DHT22;45006;56.958;24.166;2023-07-30T08:48:01;25.60;78.00
54485;DHT22;45006;56.958;24.166;2023-07-30T08:50:28;25.50;77.80
54485;DHT22;45006;56.958;24.166;2023-07-30T08:52:56;25.60;77.90
54485;DHT22;45006;56.958;24.166;2023-07-30T08:55:28;25.50;77.90
54485;DHT22;45006;56.958;24.166;2023-07-30T08:57:58;25.50;77.90
54485;DHT22;45006;56.958;24.166;2023-07-30T09:00:31;25.50;77.90
54485;DHT22;45006;56.958;24.166;2023-07-30T09:03:03;25.50;77.80
54485;DHT22;45006;56.958;24.166;2023-07-30T09:05:33;25.50;77.90
54485;DHT22;45006;56.958;24.166;2023-07-30T09:08:00;25.50;77.10
54485;DHT22;45006;56.958;24.166;2023-07-30T09:10:27;25.50;76.60
54485;DHT22;45006;56.958;24.166;2023-07-30T09:12:56;25.50;76.30
54485;DHT22;45006;56.958;24.166;2023-07-30T09:15:32;25.50;77.10
54485;DHT22;45006;56.958;24.166;2023-07-30T09:18:00;25.50;77.10
54485;DHT22;45006;56.958;24.166;2023-07-30T09:20:28;25.50;77.00
54485;DHT22;45006;56.958;24.166;2023-07-30T09:22:58;25.50;77.10
54485;DHT22;45006;56.958;24.166;2023-07-30T09:25:25;25.50;72.20
54485;DHT22;45006;56.958;24.166;2023-07-30T09:27:52;25.50;72.40
54485;DHT22;45006;56.958;24.166;2023-07-30T09:30:24;25.40;71.80
54485;DHT22;45006;56.958;24.166;2023-07-30T09:32:52;25.40;70.30
54485;DHT22;45006;56.958;24.166;2023-07-30T09:35:23;25.40;70.10
54485;DHT22;45006;56.958;24.166;2023-07-30T09:38:02;25.30;71.50
54485;DHT22;45006;56.958;24.166;2023-07-30T09:40:34;25.30;71.90
54485;DHT22;45006;56.958;24.166;2023-07-30T09:43:05;25.30;72.00
54485;DHT22;45006;56.958;24.166;2023-07-30T09:45:36;25.30;69.20
54485;DHT22;45006;56.958;24.166;2023-07-30T09:48:05;25.30;68.50
54485;DHT22;45006;56.958;24.166;2023-07-30T09:50:37;25.30;70.00
54485;DHT22;45006;56.958;24.166;2023-07-30T09:53:04;25.20;72.40
54485;DHT22;45006;56.958;24.166;2023-07-30T09:55:31;25.20;73.40
54485;DHT22;45006;56.958;24.166;2023-07-30T09:57:58;25.30;72.20
54485;DHT22;45006;56.958;24.166;2023-07-30T10:00:27;25.30;70.90
54485;DHT22;45006;56.958;24.166;2023-07-30T10:02:58;25.40;72.30
54485;DHT22;45006;56.958;24.166;2023-07-30T10:05:29;25.30;73.50
54485;DHT22;45006;56.958;24.166;2023-07-30T10:08:05;25.20;73.20
54485;DHT22;45006;56.958;24.166;2023-07-30T10:10:34;25.30;73.20
54485;DHT22;45006;56.958;24.166;2023-07-30T10:13:07;25.30;73.50
54485;DHT22;45006;56.958;24.166;2023-07-30T10:15:37;25.20;73.90
54485;DHT22;45006;56.958;24.166;2023-07-30T10:18:04;25.20;74.00
54485;DHT22;45006;56.958;24.166;2023-07-30T10:20:32;25.20;74.10
54485;DHT22;45006;56.958;24.166;2023-07-30T10:23:00;25.20;74.20
54485;DHT22;45006;56.958;24.166;2023-07-30T10:31:06;25.20;74.70
54485;DHT22;45006;56.958;24.166;2023-07-30T10:33:52;25.20;74.90
54485;DHT22;45006;56.958;24.166;2023-07-30T10:36:40;25.10;74.80
54485;DHT22;45006;56.958;24.166;2023-07-30T10:39:28;25.20;75.00
54485;DHT22;45006;56.958;24.166;2023-07-30T10:41:57;25.10;75.10
54485;DHT22;45006;56.958;24.166;2023-07-30T10:44:32;25.10;75.20
54485;DHT22;45006;56.958;24.166;2023-07-30T10:47:02;25.10;75.30
54485;DHT22;45006;56.958;24.166;2023-07-30T10:49:39;25.10;75.40
54485;DHT22;45006;56.958;24.166;2023-07-30T10:52:07;25.10;76.10
54485;DHT22;45006;56.958;24.166;2023-07-30T10:54:34;25.10;75.60
54485;DHT22;45006;56.958;24.166;2023-07-30T10:57:02;25.10;75.70
54485;DHT22;45006;56.958;24.166;2023-07-30T10:59:36;25.20;75.60
54485;DHT22;45006;56.958;24.166;2023-07-30T11:02:04;25.20;75.70
54485;DHT22;45006;56.958;24.166;2023-07-30T11:04:34;25.10;75.70
54485;DHT22;45006;56.958;24.166;2023-07-30T11:07:02;25.10;76.00
54485;DHT22;45006;56.958;24.166;2023-07-30T11:09:30;25.20;76.10
54485;DHT22;45006;56.958;24.166;2023-07-30T11:11:58;25.10;76.10
54485;DHT22;45006;56.958;24.166;2023-07-30T11:14:26;25.10;76.20
54485;DHT22;45006;56.958;24.166;2023-07-30T11:16:56;25.10;76.30
54485;DHT22;45006;56.958;24.166;2023-07-30T11:19:26;25.10;76.40
54485;DHT22;45006;56.958;24.166;2023-07-30T11:21:55;25.10;76.40
54485;DHT22;45006;56.958;24.166;2023-07-30T11:24:34;25.10;76.60
54485;DHT22;45006;56.958;24.166;2023-07-30T11:27:02;25.10;76.70
54485;DHT22;45006;56.958;24.166;2023-07-30T11:29:30;25.10;76.90
54485;DHT22;45006;56.958;24.166;2023-07-30T11:31:58;25.10;76.80
54485;DHT22;45006;56.958;24.166;2023-07-30T11:34:26;25.10;77.00
54485;DHT22;45006;56.958;24.166;2023-07-30T11:36:54;25.00;76.80
54485;DHT22;45006;56.958;24.166;2023-07-30T11:39:23;25.00;77.00
54485;DHT22;45006;56.958;24.166;2023-07-30T11:41:50;25.10;77.00
54485;DHT22;45006;56.958;24.166;2023-07-30T11:44:37;25.10;77.10
54485;DHT22;45006;56.958;24.166;2023-07-30T11:47:07;25.00;76.90
54485;DHT22;45006;56.958;24.166;2023-07-30T11:49:36;25.00;76.90
54485;DHT22;45006;56.958;24.166;2023-07-30T11:52:10;25.00;76.80
54485;DHT22;45006;56.958;24.166;2023-07-30T11:54:37;25.10;76.90
54485;DHT22;45006;56.958;24.166;2023-07-30T11:57:04;25.10;76.70
54485;DHT22;45006;56.958;24.166;2023-07-30T11:59:32;25.10;76.80
54485;DHT22;45006;56.958;24.166;2023-07-30T12:01:59;25.10;76.80
54485;DHT22;45006;56.958;24.166;2023-07-30T12:04:43;25.10;76.90
54485;DHT22;45006;56.958;24.166;2023-07-30T12:07:10;25.10;76.90
54485;DHT22;45006;56.958;24.166;2023-07-30T12:09:37;25.10;76.80
54485;DHT22;45006;56.958;24.166;2023-07-30T12:12:06;25.10;76.90
54485;DHT22;45006;56.958;24.166;2023-07-30T12:17:15;25.10;77.00
54485;DHT22;45006;56.958;24.166;2023-07-30T12:19:42;25.10;77.00
54485;DHT22;45006;56.958;24.166;2023-07-30T12:22:09;25.10;77.00
54485;DHT22;45006;56.958;24.166;2023-07-30T12:24:36;25.10;77.00
54485;DHT22;45006;56.958;24.166;2023-07-30T12:27:03;25.10;77.00
54485;DHT22;45006;56.958;24.166;2023-07-30T12:29:31;25.10;77.10
54485;DHT22;45006;56.958;24.166;2023-07-30T12:31:58;25.10;77.00
54485;DHT22;45006;56.958;24.166;2023-07-30T12:34:29;25.00;76.90
54485;DHT22;45006;56.958;24.166;2023-07-30T12:36:56;25.00;76.70
54485;DHT22;45006;56.958;24.166;2023-07-30T12:39:24;24.90;75.90
54485;DHT22;45006;56.958;24.166;2023-07-30T12:41:51;24.90;75.90
54485;DHT22;45006;56.958;24.166;2023-07-30T12:44:20;24.90;76.20
54485;DHT22;45006;56.958;24.166;2023-07-30T12:46:48;24.80;76.50
54485;DHT22;45006;56.958;24.166;2023-07-30T12:49:15;24.80;76.40
54485;DHT22;45006;56.958;24.166;2023-07-30T12:51:42;24.80;76.70
54485;DHT22;45006;56.958;24.166;2023-07-30T12:54:11;24.80;77.20
54485;DHT22;45006;56.958;24.166;2023-07-30T12:56:38;24.80;77.00
54485;DHT22;45006;56.958;24.166;2023-07-30T12:59:05;24.70;77.10
54485;DHT22;45006;56.958;24.166;2023-07-30T13:01:31;24.70;77.10
54485;DHT22;45006;56.958;24.166;2023-07-30T13:03:59;24.70;77.00
54485;DHT22;45006;56.958;24.166;2023-07-30T13:06:25;24.70;77.30
54485;DHT22;45006;56.958;24.166;2023-07-30T13:08:54;24.70;77.30
54485;DHT22;45006;56.958;24.166;2023-07-30T13:11:21;24.70;77.60
54485;DHT22;45006;56.958;24.166;2023-07-30T13:13:48;24.80;77.20
54485;DHT22;45006;56.958;24.166;2023-07-30T13:16:15;24.70;77.30
54485;DHT22;45006;56.958;24.166;2023-07-30T13:18:43;24.70;77.50
54485;DHT22;45006;56.958;24.166;2023-07-30T13:21:10;24.70;77.80
54485;DHT22;45006;56.958;24.166;2023-07-30T13:23:37;24.70;77.30
54485;DHT22;45006;56.958;24.166;2023-07-30T13:26:05;24.70;76.80
54485;DHT22;45006;56.958;24.166;2023-07-30T13:28:32;24.60;76.90
54485;DHT22;45006;56.958;24.166;2023-07-30T13:30:59;24.60;75.60
54485;DHT22;45006;56.958;24.166;2023-07-30T13:33:26;24.50;76.70
54485;DHT22;45006;56.958;24.166;2023-07-30T13:35:53;24.50;77.50
54485;DHT22;45006;56.958;24.166;2023-07-30T13:38:20;24.50;77.90
54485;DHT22;45006;56.958;24.166;2023-07-30T13:40:49;24.50;77.30
54485;DHT22;45006;56.958;24.166;2023-07-30T13:43:15;24.50;78.10
54485;DHT22;45006;56.958;24.166;2023-07-30T13:45:42;24.50;77.90
54485;DHT22;45006;56.958;24.166;2023-07-30T13:48:10;24.50;78.10
54485;DHT22;45006;56.958;24.166;2023-07-30T13:50:39;24.60;78.10
54485;DHT22;45006;56.958;24.166;2023-07-30T13:53:06;24.50;78.30
54485;DHT22;45006;56.958;24.166;2023-07-30T13:55:33;24.50;78.20
54485;DHT22;45006;56.958;24.166;2023-07-30T13:58:00;24.60;78.20
54485;DHT22;45006;56.958;24.166;2023-07-30T14:00:29;24.60;77.80
54485;DHT22;45006;56.958;24.166;2023-07-30T14:02:56;24.60;77.70
54485;DHT22;45006;56.958;24.166;2023-07-30T14:05:23;24.60;77.90
54485;DHT22;45006;56.958;24.166;2023-07-30T14:07:50;24.60;78.10
54485;DHT22;45006;56.958;24.166;2023-07-30T14:10:20;24.60;78.00
54485;DHT22;45006;56.958;24.166;2023-07-30T14:12:49;24.50;78.00
54485;DHT22;45006;56.958;24.166;2023-07-30T14:15:16;24.50;78.00
54485;DHT22;45006;56.958;24.166;2023-07-30T14:17:43;24.50;77.60
54485;DHT22;45006;56.958;24.166;2023-07-30T14:20:10;24.50;77.40
54485;DHT22;45006;56.958;24.166;2023-07-30T14:22:37;24.50;78.00
54485;DHT22;45006;56.958;24.166;2023-07-30T14:25:05;24.60;77.00
54485;DHT22;45006;56.958;24.166;2023-07-30T14:27:32;24.50;77.50
54485;DHT22;45006;56.958;24.166;2023-07-30T14:30:00;24.50;77.70
54485;DHT22;45006;56.958;24.166;2023-07-30T14:32:27;24.60;77.80
54485;DHT22;45006;56.958;24.166;2023-07-30T14:34:54;24.50;77.70
54485;DHT22;45006;56.958;24.166;2023-07-30T14:37:22;24.50;77.70
54485;DHT22;45006;56.958;24.166;2023-07-30T14:39:49;24.50;77.60
54485;DHT22;45006;56.958;24.166;2023-07-30T14:42:16;24.50;77.60
54485;DHT22;45006;56.958;24.166;2023-07-30T14:44:43;24.50;77.60
54485;DHT22;45006;56.958;24.166;2023-07-30T14:47:09;24.50;77.70
54485;DHT22;45006;56.958;24.166;2023-07-30T14:49:36;24.50;77.80
54485;DHT22;45006;56.958;24.166;2023-07-30T14:52:05;24.50;77.70
54485;DHT22;45006;56.958;24.166;2023-07-30T14:54:33;24.50;77.70
54485;DHT22;45006;56.958;24.166;2023-07-30T14:57:04;24.50;77.70
54485;DHT22;45006;56.958;24.166;2023-07-30T14:59:31;24.50;77.80
54485;DHT22;45006;56.958;24.166;2023-07-30T15:01:59;24.50;77.60
54485;DHT22;45006;56.958;24.166;2023-07-30T15:04:26;24.50;77.60
54485;DHT22;45006;56.958;24.166;2023-07-30T15:06:53;24.50;77.50
54485;DHT22;45006;56.958;24.166;2023-07-30T15:09:20;24.50;77.40
54485;DHT22;45006;56.958;24.166;2023-07-30T15:11:47;24.50;77.50
54485;DHT22;45006;56.958;24.166;2023-07-30T15:14:14;24.50;77.60
54485;DHT22;45006;56.958;24.166;2023-07-30T15:16:41;24.50;77.70
54485;DHT22;45006;56.958;24.166;2023-07-30T15:19:08;24.50;77.20
54485;DHT22;45006;56.958;24.166;2023-07-30T15:21:35;24.50;77.50
54485;DHT22;45006;56.958;24.166;2023-07-30T15:24:04;24.50;77.60
54485;DHT22;45006;56.958;24.166;2023-07-30T15:26:31;24.50;77.80
54485;DHT22;45006;56.958;24.166;2023-07-30T15:28:58;24.50;78.00